sensor_id;sensor_type;location;lat;lon;timestamp;pressure;altitude;pressure_sealevel;temperature
37452;BMP280;23314;51.114;6.900;2022-10-16T00:00:44;100839.34;;;15.60
37452;BMP280;23314;51.114;6.900;2022-10-16T00:03:10;100836.78;;;15.56
37452;BMP280;23314;51.114;6.900;2022-10-16T00:05:41;100835.72;;;15.53
37452;BMP280;23314;51.114;6.900;2022-10-16T00:08:07;100830.16;;;15.48
37452;BMP280;23314;51.114;6.900;2022-10-16T00:10:33;100831.44;;;15.43
37452;BMP280;23314;51.114;6.900;2022-10-16T00:12:59;100842.31;;;15.40
37452;BMP280;23314;51.114;6.900;2022-10-16T00:15:24;100849.28;;;15.37
37452;BMP280;23314;51.114;6.900;2022-10-16T00:17:50;100854.38;;;15.35
37452;BMP280;23314;51.114;6.900;2022-10-16T00:20:15;100846.09;;;15.29
37452;BMP280;23314;51.114;6.900;2022-10-16T00:22:42;100864.59;;;15.27
37452;BMP280;23314;51.114;6.900;2022-10-16T00:25:14;100867.41;;;15.24
37452;BMP280;23314;51.114;6.900;2022-10-16T00:27:40;100862.44;;;15.22
37452;BMP280;23314;51.114;6.900;2022-10-16T00:30:06;100858.69;;;15.19
37452;BMP280;23314;51.114;6.900;2022-10-16T00:32:33;100856.88;;;15.16
37452;BMP280;23314;51.114;6.900;2022-10-16T00:34:58;100848.47;;;15.14
37452;BMP280;23314;51.114;6.900;2022-10-16T00:37:24;100849.69;;;15.13
37452;BMP280;23314;51.114;6.900;2022-10-16T00:39:49;100852.81;;;15.12
37452;BMP280;23314;51.114;6.900;2022-10-16T00:42:16;100849.03;;;15.09
37452;BMP280;23314;51.114;6.900;2022-10-16T00:44:49;100841.41;;;15.08
37452;BMP280;23314;51.114;6.900;2022-10-16T00:47:21;100845.69;;;15.05
37452;BMP280;23314;51.114;6.900;2022-10-16T00:49:50;100844.63;;;15.02
37452;BMP280;23314;51.114;6.900;2022-10-16T00:52:16;100842.06;;;14.99
37452;BMP280;23314;51.114;6.900;2022-10-16T00:54:42;100840.25;;;14.96
37452;BMP280;23314;51.114;6.900;2022-10-16T00:57:08;100831.88;;;14.94
37452;BMP280;23314;51.114;6.900;2022-10-16T00:59:37;100836.91;;;14.92
37452;BMP280;23314;51.114;6.900;2022-10-16T01:02:05;100837.78;;;14.89
37452;BMP280;23314;51.114;6.900;2022-10-16T01:04:35;100829.72;;;14.89
37452;BMP280;23314;51.114;6.900;2022-10-16T01:07:18;100850.88;;;14.86
37452;BMP280;23314;51.114;6.900;2022-10-16T01:10:30;100849.78;;;14.84
37452;BMP280;23314;51.114;6.900;2022-10-16T01:13:11;100846.81;;;14.82
37452;BMP280;23314;51.114;6.900;2022-10-16T01:18:22;100858.72;;;14.81
37452;BMP280;23314;51.114;6.900;2022-10-16T01:21:04;100843.00;;;14.79
37452;BMP280;23314;51.114;6.900;2022-10-16T01:28:56;100866.13;;;14.77
37452;BMP280;23314;51.114;6.900;2022-10-16T01:31:26;100852.25;;;14.78
37452;BMP280;23314;51.114;6.900;2022-10-16T01:36:52;100854.84;;;14.82
37452;BMP280;23314;51.114;6.900;2022-10-16T01:39:22;100857.84;;;14.84
37452;BMP280;23314;51.114;6.900;2022-10-16T01:42:15;100852.81;;;14.86
37452;BMP280;23314;51.114;6.900;2022-10-16T01:44:43;100854.66;;;14.89
37452;BMP280;23314;51.114;6.900;2022-10-16T01:47:11;100856.03;;;14.94
37452;BMP280;23314;51.114;6.900;2022-10-16T01:49:39;100851.72;;;14.96
37452;BMP280;23314;51.114;6.900;2022-10-16T01:52:09;100856.25;;;14.99
37452;BMP280;23314;51.114;6.900;2022-10-16T01:54:39;100861.63;;;14.99
37452;BMP280;23314;51.114;6.900;2022-10-16T01:57:06;100865.81;;;15.00
37452;BMP280;23314;51.114;6.900;2022-10-16T01:59:35;100861.94;;;15.01
37452;BMP280;23314;51.114;6.900;2022-10-16T02:02:07;100879.88;;;15.05
37452;BMP280;23314;51.114;6.900;2022-10-16T02:04:38;100875.16;;;15.09
37452;BMP280;23314;51.114;6.900;2022-10-16T02:07:04;100870.44;;;15.13
37452;BMP280;23314;51.114;6.900;2022-10-16T02:09:33;100858.78;;;15.16
37452;BMP280;23314;51.114;6.900;2022-10-16T02:12:01;100866.00;;;15.19
37452;BMP280;23314;51.114;6.900;2022-10-16T02:14:29;100853.66;;;15.22
37452;BMP280;23314;51.114;6.900;2022-10-16T02:16:54;100862.34;;;15.26
37452;BMP280;23314;51.114;6.900;2022-10-16T02:19:20;100868.34;;;15.30
37452;BMP280;23314;51.114;6.900;2022-10-16T02:21:57;100875.13;;;15.34
37452;BMP280;23314;51.114;6.900;2022-10-16T02:27:03;100873.38;;;15.41
37452;BMP280;23314;51.114;6.900;2022-10-16T02:29:32;100886.72;;;15.44
37452;BMP280;23314;51.114;6.900;2022-10-16T02:32:02;100873.94;;;15.48
37452;BMP280;23314;51.114;6.900;2022-10-16T02:34:31;100891.84;;;15.51
37452;BMP280;23314;51.114;6.900;2022-10-16T02:36:58;100884.09;;;15.53
37452;BMP280;23314;51.114;6.900;2022-10-16T02:39:26;100882.50;;;15.56
37452;BMP280;23314;51.114;6.900;2022-10-16T02:41:52;100879.78;;;15.56
37452;BMP280;23314;51.114;6.900;2022-10-16T02:44:17;100880.88;;;15.59
37452;BMP280;23314;51.114;6.900;2022-10-16T02:46:43;100883.13;;;15.60
37452;BMP280;23314;51.114;6.900;2022-10-16T02:49:08;100871.19;;;15.61
37452;BMP280;23314;51.114;6.900;2022-10-16T02:51:33;100876.56;;;15.61
37452;BMP280;23314;51.114;6.900;2022-10-16T02:53:59;100875.06;;;15.60
37452;BMP280;23314;51.114;6.900;2022-10-16T02:56:24;100863.84;;;15.62
37452;BMP280;23314;51.114;6.900;2022-10-16T02:58:49;100876.88;;;15.63
37452;BMP280;23314;51.114;6.900;2022-10-16T03:01:15;100875.78;;;15.61
37452;BMP280;23314;51.114;6.900;2022-10-16T03:03:42;100874.31;;;15.60
37452;BMP280;23314;51.114;6.900;2022-10-16T03:06:07;100873.25;;;15.57
37452;BMP280;23314;51.114;6.900;2022-10-16T03:08:32;100888.28;;;15.54
37452;BMP280;23314;51.114;6.900;2022-10-16T03:10:58;100892.63;;;15.52
37452;BMP280;23314;51.114;6.900;2022-10-16T03:13:23;100886.59;;;15.48
37452;BMP280;23314;51.114;6.900;2022-10-16T03:15:48;100870.91;;;15.46
37452;BMP280;23314;51.114;6.900;2022-10-16T03:18:14;100862.22;;;15.42
37452;BMP280;23314;51.114;6.900;2022-10-16T03:20:39;100860.81;;;15.38
37452;BMP280;23314;51.114;6.900;2022-10-16T03:23:05;100869.75;;;15.34
37452;BMP280;23314;51.114;6.900;2022-10-16T03:25:31;100869.41;;;15.32
37452;BMP280;23314;51.114;6.900;2022-10-16T03:27:57;100866.84;;;15.29
37452;BMP280;23314;51.114;6.900;2022-10-16T03:30:22;100877.59;;;15.29
37452;BMP280;23314;51.114;6.900;2022-10-16T03:32:48;100886.09;;;15.27
37452;BMP280;23314;51.114;6.900;2022-10-16T03:35:13;100885.31;;;15.27
37452;BMP280;23314;51.114;6.900;2022-10-16T03:37:38;100879.66;;;15.25
37452;BMP280;23314;51.114;6.900;2022-10-16T03:40:04;100889.31;;;15.22
37452;BMP280;23314;51.114;6.900;2022-10-16T03:42:30;100888.25;;;15.19
37452;BMP280;23314;51.114;6.900;2022-10-16T03:44:55;100876.44;;;15.17
37452;BMP280;23314;51.114;6.900;2022-10-16T03:47:21;100873.88;;;15.13
37452;BMP280;23314;51.114;6.900;2022-10-16T03:49:49;100876.22;;;15.11
37452;BMP280;23314;51.114;6.900;2022-10-16T03:52:14;100879.44;;;15.06
37452;BMP280;23314;51.114;6.900;2022-10-16T03:54:39;100884.91;;;15.02
37452;BMP280;23314;51.114;6.900;2022-10-16T03:57:05;100890.81;;;14.97
37452;BMP280;23314;51.114;6.900;2022-10-16T03:59:30;100896.00;;;14.92
37452;BMP280;23314;51.114;6.900;2022-10-16T04:01:56;100912.63;;;14.86
37452;BMP280;23314;51.114;6.900;2022-10-16T04:04:21;100910.09;;;14.83
37452;BMP280;23314;51.114;6.900;2022-10-16T04:06:46;100912.84;;;14.79
37452;BMP280;23314;51.114;6.900;2022-10-16T04:09:12;100912.09;;;14.79
37452;BMP280;23314;51.114;6.900;2022-10-16T04:11:37;100899.13;;;14.77
37452;BMP280;23314;51.114;6.900;2022-10-16T04:14:03;100911.44;;;14.75
37452;BMP280;23314;51.114;6.900;2022-10-16T04:16:28;100913.78;;;14.73
37452;BMP280;23314;51.114;6.900;2022-10-16T04:18:53;100912.75;;;14.70
37452;BMP280;23314;51.114;6.900;2022-10-16T04:21:19;100920.47;;;14.68
37452;BMP280;23314;51.114;6.900;2022-10-16T04:23:44;100917.34;;;14.69
37452;BMP280;23314;51.114;6.900;2022-10-16T04:26:09;100918.53;;;14.68
37452;BMP280;23314;51.114;6.900;2022-10-16T04:28:36;100927.34;;;14.69
37452;BMP280;23314;51.114;6.900;2022-10-16T04:31:04;100931.94;;;14.68
37452;BMP280;23314;51.114;6.900;2022-10-16T04:33:29;100935.06;;;14.67
37452;BMP280;23314;51.114;6.900;2022-10-16T04:35:59;100921.31;;;14.65
37452;BMP280;23314;51.114;6.900;2022-10-16T04:38:25;100916.06;;;14.61
37452;BMP280;23314;51.114;6.900;2022-10-16T04:40:51;100934.53;;;14.59
37452;BMP280;23314;51.114;6.900;2022-10-16T04:43:16;100931.06;;;14.59
37452;BMP280;23314;51.114;6.900;2022-10-16T04:45:42;100923.78;;;14.59
37452;BMP280;23314;51.114;6.900;2022-10-16T04:48:07;100929.16;;;14.59
37452;BMP280;23314;51.114;6.900;2022-10-16T04:50:32;100928.38;;;14.59
37452;BMP280;23314;51.114;6.900;2022-10-16T04:52:58;100933.41;;;14.57
37452;BMP280;23314;51.114;6.900;2022-10-16T04:55:23;100949.53;;;14.57
37452;BMP280;23314;51.114;6.900;2022-10-16T04:57:48;100953.38;;;14.56
37452;BMP280;23314;51.114;6.900;2022-10-16T05:00:14;100960.25;;;14.57
37452;BMP280;23314;51.114;6.900;2022-10-16T05:02:40;100959.41;;;14.60
37452;BMP280;23314;51.114;6.900;2022-10-16T05:05:05;100953.63;;;14.61
37452;BMP280;23314;51.114;6.900;2022-10-16T05:07:31;100949.88;;;14.59
37452;BMP280;23314;51.114;6.900;2022-10-16T05:09:56;100955.31;;;14.55
37452;BMP280;23314;51.114;6.900;2022-10-16T05:12:22;100971.56;;;14.51
37452;BMP280;23314;51.114;6.900;2022-10-16T05:14:47;100974.31;;;14.48
37452;BMP280;23314;51.114;6.900;2022-10-16T05:17:12;100964.03;;;14.46
37452;BMP280;23314;51.114;6.900;2022-10-16T05:19:38;100964.84;;;14.43
37452;BMP280;23314;51.114;6.900;2022-10-16T05:22:03;100974.53;;;14.41
37452;BMP280;23314;51.114;6.900;2022-10-16T05:24:28;100977.63;;;14.39
37452;BMP280;23314;51.114;6.900;2022-10-16T05:26:54;101001.78;;;14.39
37452;BMP280;23314;51.114;6.900;2022-10-16T05:29:19;100997.56;;;14.38
37452;BMP280;23314;51.114;6.900;2022-10-16T05:31:44;100996.41;;;14.39
37452;BMP280;23314;51.114;6.900;2022-10-16T05:34:10;100992.97;;;14.39
37452;BMP280;23314;51.114;6.900;2022-10-16T05:36:35;100981.13;;;14.36
37452;BMP280;23314;51.114;6.900;2022-10-16T05:39:01;100984.97;;;14.35
37452;BMP280;23314;51.114;6.900;2022-10-16T05:41:26;100987.34;;;14.33
37452;BMP280;23314;51.114;6.900;2022-10-16T05:43:52;101004.31;;;14.30
37452;BMP280;23314;51.114;6.900;2022-10-16T05:46:18;101009.69;;;14.30
37452;BMP280;23314;51.114;6.900;2022-10-16T05:48:43;101005.78;;;14.31
37452;BMP280;23314;51.114;6.900;2022-10-16T05:51:11;101010.66;;;14.36
37452;BMP280;23314;51.114;6.900;2022-10-16T05:53:38;101012.94;;;14.38
37452;BMP280;23314;51.114;6.900;2022-10-16T05:56:05;101010.13;;;14.41
37452;BMP280;23314;51.114;6.900;2022-10-16T05:58:33;101029.59;;;14.45
37452;BMP280;23314;51.114;6.900;2022-10-16T06:01:03;101026.50;;;14.47
37452;BMP280;23314;51.114;6.900;2022-10-16T06:03:28;101028.44;;;14.46
37452;BMP280;23314;51.114;6.900;2022-10-16T06:05:54;101023.81;;;14.47
37452;BMP280;23314;51.114;6.900;2022-10-16T06:08:21;101034.88;;;14.49
37452;BMP280;23314;51.114;6.900;2022-10-16T06:10:46;101045.09;;;14.54
37452;BMP280;23314;51.114;6.900;2022-10-16T06:13:13;101034.69;;;14.56
37452;BMP280;23314;51.114;6.900;2022-10-16T06:15:39;101048.47;;;14.58
37452;BMP280;23314;51.114;6.900;2022-10-16T06:18:07;101051.03;;;14.62
37452;BMP280;23314;51.114;6.900;2022-10-16T06:20:33;101047.84;;;14.67
37452;BMP280;23314;51.114;6.900;2022-10-16T06:22:58;101058.91;;;14.69
37452;BMP280;23314;51.114;6.900;2022-10-16T06:25:24;101061.94;;;14.71
37452;BMP280;23314;51.114;6.900;2022-10-16T06:27:50;101060.31;;;14.74
37452;BMP280;23314;51.114;6.900;2022-10-16T06:30:15;101054.13;;;14.77
37452;BMP280;23314;51.114;6.900;2022-10-16T06:32:40;101050.56;;;14.80
37452;BMP280;23314;51.114;6.900;2022-10-16T06:35:06;101054.34;;;14.82
37452;BMP280;23314;51.114;6.900;2022-10-16T06:37:32;101058.84;;;14.85
37452;BMP280;23314;51.114;6.900;2022-10-16T06:39:57;101058.03;;;14.89
37452;BMP280;23314;51.114;6.900;2022-10-16T06:42:22;101060.94;;;14.94
37452;BMP280;23314;51.114;6.900;2022-10-16T06:44:48;101075.34;;;15.00
37452;BMP280;23314;51.114;6.900;2022-10-16T06:47:13;101086.31;;;15.06
37452;BMP280;23314;51.114;6.900;2022-10-16T06:49:39;101083.13;;;15.11
37452;BMP280;23314;51.114;6.900;2022-10-16T06:52:04;101083.78;;;15.15
37452;BMP280;23314;51.114;6.900;2022-10-16T06:54:30;101093.91;;;15.24
37452;BMP280;23314;51.114;6.900;2022-10-16T06:56:55;101092.09;;;15.34
37452;BMP280;23314;51.114;6.900;2022-10-16T06:59:21;101106.31;;;15.47
37452;BMP280;23314;51.114;6.900;2022-10-16T07:01:47;101105.13;;;15.61
37452;BMP280;23314;51.114;6.900;2022-10-16T07:04:12;101118.25;;;15.72
37452;BMP280;23314;51.114;6.900;2022-10-16T07:06:38;101123.09;;;15.77
37452;BMP280;23314;51.114;6.900;2022-10-16T07:09:06;101125.69;;;15.81
37452;BMP280;23314;51.114;6.900;2022-10-16T07:11:32;101120.72;;;15.79
37452;BMP280;23314;51.114;6.900;2022-10-16T07:13:58;101131.50;;;15.79
37452;BMP280;23314;51.114;6.900;2022-10-16T07:16:26;101136.53;;;15.77
37452;BMP280;23314;51.114;6.900;2022-10-16T07:18:53;101142.47;;;15.72
37452;BMP280;23314;51.114;6.900;2022-10-16T07:21:23;101150.75;;;15.65
37452;BMP280;23314;51.114;6.900;2022-10-16T07:23:56;101158.16;;;15.61
37452;BMP280;23314;51.114;6.900;2022-10-16T07:26:23;101154.81;;;15.57
37452;BMP280;23314;51.114;6.900;2022-10-16T07:28:49;101156.00;;;15.56
37452;BMP280;23314;51.114;6.900;2022-10-16T07:31:16;101161.38;;;15.56
37452;BMP280;23314;51.114;6.900;2022-10-16T07:33:43;101164.00;;;15.59
37452;BMP280;23314;51.114;6.900;2022-10-16T07:36:12;101165.03;;;15.62
37452;BMP280;23314;51.114;6.900;2022-10-16T07:38:38;101156.97;;;15.62
37452;BMP280;23314;51.114;6.900;2022-10-16T07:41:06;101161.31;;;15.59
37452;BMP280;23314;51.114;6.900;2022-10-16T07:43:32;101160.53;;;15.59
37452;BMP280;23314;51.114;6.900;2022-10-16T07:45:59;101167.50;;;15.56
37452;BMP280;23314;51.114;6.900;2022-10-16T07:48:28;101177.19;;;15.53
37452;BMP280;23314;51.114;6.900;2022-10-16T07:51:01;101170.19;;;15.56
37452;BMP280;23314;51.114;6.900;2022-10-16T07:53:28;101181.91;;;15.62
37452;BMP280;23314;51.114;6.900;2022-10-16T07:56:00;101193.47;;;15.76
37452;BMP280;23314;51.114;6.900;2022-10-16T07:58:27;101192.00;;;15.88
37452;BMP280;23314;51.114;6.900;2022-10-16T08:00:53;101194.66;;;16.00
37452;BMP280;23314;51.114;6.900;2022-10-16T08:03:18;101198.88;;;16.14
37452;BMP280;23314;51.114;6.900;2022-10-16T08:05:43;101211.59;;;16.27
37452;BMP280;23314;51.114;6.900;2022-10-16T08:08:16;101209.63;;;16.40
37452;BMP280;23314;51.114;6.900;2022-10-16T08:10:41;101210.81;;;16.52
37452;BMP280;23314;51.114;6.900;2022-10-16T08:13:07;101216.19;;;16.65
37452;BMP280;23314;51.114;6.900;2022-10-16T08:15:33;101214.31;;;16.75
37452;BMP280;23314;51.114;6.900;2022-10-16T08:18:03;101217.41;;;16.86
37452;BMP280;23314;51.114;6.900;2022-10-16T08:20:29;101214.34;;;16.97
37452;BMP280;23314;51.114;6.900;2022-10-16T08:22:56;101216.38;;;17.06
37452;BMP280;23314;51.114;6.900;2022-10-16T08:25:23;101218.69;;;17.16
37452;BMP280;23314;51.114;6.900;2022-10-16T08:27:49;101221.03;;;17.27
37452;BMP280;23314;51.114;6.900;2022-10-16T08:30:16;101229.91;;;17.37
37452;BMP280;23314;51.114;6.900;2022-10-16T08:32:41;101229.22;;;17.46
37452;BMP280;23314;51.114;6.900;2022-10-16T08:35:08;101239.00;;;17.52
37452;BMP280;23314;51.114;6.900;2022-10-16T08:37:35;101241.44;;;17.60
37452;BMP280;23314;51.114;6.900;2022-10-16T08:40:01;101254.06;;;17.63
37452;BMP280;23314;51.114;6.900;2022-10-16T08:42:47;101256.03;;;17.71
37452;BMP280;23314;51.114;6.900;2022-10-16T08:45:38;101257.72;;;17.78
37452;BMP280;23314;51.114;6.900;2022-10-16T08:48:17;101259.28;;;17.88
37452;BMP280;23314;51.114;6.900;2022-10-16T08:50:43;101266.66;;;17.97
37452;BMP280;23314;51.114;6.900;2022-10-16T08:53:36;101267.13;;;18.05
37452;BMP280;23314;51.114;6.900;2022-10-16T08:56:03;101272.13;;;18.16
37452;BMP280;23314;51.114;6.900;2022-10-16T08:58:30;101275.31;;;18.23
37452;BMP280;23314;51.114;6.900;2022-10-16T09:00:57;101276.53;;;18.32
37452;BMP280;23314;51.114;6.900;2022-10-16T09:06:32;101268.16;;;18.48
37452;BMP280;23314;51.114;6.900;2022-10-16T09:09:28;101267.13;;;18.55
37452;BMP280;23314;51.114;6.900;2022-10-16T09:12:08;101277.34;;;18.60
37452;BMP280;23314;51.114;6.900;2022-10-16T09:15:01;101266.22;;;18.67
37452;BMP280;23314;51.114;6.900;2022-10-16T09:17:52;101276.31;;;18.76
37452;BMP280;23314;51.114;6.900;2022-10-16T09:20:30;101274.81;;;18.84
37452;BMP280;23314;51.114;6.900;2022-10-16T09:23:12;101280.38;;;18.90
37452;BMP280;23314;51.114;6.900;2022-10-16T09:25:39;101272.44;;;18.96
37452;BMP280;23314;51.114;6.900;2022-10-16T09:28:08;101272.53;;;19.01
37452;BMP280;23314;51.114;6.900;2022-10-16T09:30:34;101271.53;;;19.08
37452;BMP280;23314;51.114;6.900;2022-10-16T09:33:00;101282.50;;;19.14
37452;BMP280;23314;51.114;6.900;2022-10-16T09:35:36;101285.63;;;19.21
37452;BMP280;23314;51.114;6.900;2022-10-16T09:38:02;101283.06;;;19.27
37452;BMP280;23314;51.114;6.900;2022-10-16T09:40:35;101293.09;;;19.36
37452;BMP280;23314;51.114;6.900;2022-10-16T09:43:12;101294.75;;;19.42
37452;BMP280;23314;51.114;6.900;2022-10-16T09:45:39;101289.50;;;19.48
37452;BMP280;23314;51.114;6.900;2022-10-16T09:48:12;101292.66;;;19.56
37452;BMP280;23314;51.114;6.900;2022-10-16T09:50:38;101294.56;;;19.65
37452;BMP280;23314;51.114;6.900;2022-10-16T09:53:14;101295.16;;;19.69
37452;BMP280;23314;51.114;6.900;2022-10-16T09:55:50;101288.66;;;19.75
37452;BMP280;23314;51.114;6.900;2022-10-16T09:58:16;101292.25;;;19.82
37452;BMP280;23314;51.114;6.900;2022-10-16T10:00:49;101294.78;;;19.85
37452;BMP280;23314;51.114;6.900;2022-10-16T10:03:43;101298.09;;;19.89
37452;BMP280;23314;51.114;6.900;2022-10-16T10:06:22;101301.97;;;19.98
37452;BMP280;23314;51.114;6.900;2022-10-16T10:16:38;101288.22;;;20.35
37452;BMP280;23314;51.114;6.900;2022-10-16T10:19:04;101286.22;;;20.44
37452;BMP280;23314;51.114;6.900;2022-10-16T10:21:32;101291.97;;;20.61
37452;BMP280;23314;51.114;6.900;2022-10-16T10:23:58;101292.00;;;20.76
37452;BMP280;23314;51.114;6.900;2022-10-16T10:26:27;101287.84;;;20.90
37452;BMP280;23314;51.114;6.900;2022-10-16T10:31:53;101283.91;;;21.06
37452;BMP280;23314;51.114;6.900;2022-10-16T10:43:17;101291.22;;;21.15
37452;BMP280;23314;51.114;6.900;2022-10-16T10:45:52;101296.75;;;21.21
37452;BMP280;23314;51.114;6.900;2022-10-16T10:51:22;101302.09;;;21.30
37452;BMP280;23314;51.114;6.900;2022-10-16T10:56:47;101289.75;;;21.29
37452;BMP280;23314;51.114;6.900;2022-10-16T11:02:00;101295.72;;;21.18
37452;BMP280;23314;51.114;6.900;2022-10-16T11:04:34;101305.72;;;21.12
37452;BMP280;23314;51.114;6.900;2022-10-16T11:07:04;101292.69;;;21.01
37452;BMP280;23314;51.114;6.900;2022-10-16T11:10:20;101297.97;;;21.05
37452;BMP280;23314;51.114;6.900;2022-10-16T11:12:31;101312.47;;;21.16
37452;BMP280;23314;51.114;6.900;2022-10-16T11:15:18;101304.88;;;21.21
37452;BMP280;23314;51.114;6.900;2022-10-16T11:17:50;101309.28;;;21.18
37452;BMP280;23314;51.114;6.900;2022-10-16T11:20:23;101305.53;;;21.15
37452;BMP280;23314;51.114;6.900;2022-10-16T11:23:26;101311.09;;;21.21
37452;BMP280;23314;51.114;6.900;2022-10-16T11:25:56;101314.53;;;21.22
37452;BMP280;23314;51.114;6.900;2022-10-16T11:28:27;101315.75;;;21.21
37452;BMP280;23314;51.114;6.900;2022-10-16T11:34:02;101308.81;;;21.20
37452;BMP280;23314;51.114;6.900;2022-10-16T11:39:24;101304.25;;;21.41
37452;BMP280;23314;51.114;6.900;2022-10-16T11:41:54;101306.75;;;21.44
37452;BMP280;23314;51.114;6.900;2022-10-16T11:47:36;101317.22;;;21.51
37452;BMP280;23314;51.114;6.900;2022-10-16T11:50:26;101317.41;;;21.63
37452;BMP280;23314;51.114;6.900;2022-10-16T11:55:43;101317.28;;;21.87
37452;BMP280;23314;51.114;6.900;2022-10-16T12:00:46;101318.78;;;22.24
37452;BMP280;23314;51.114;6.900;2022-10-16T12:03:29;101329.56;;;22.38
37452;BMP280;23314;51.114;6.900;2022-10-16T12:08:35;101319.44;;;22.60
37452;BMP280;23314;51.114;6.900;2022-10-16T12:11:54;101322.69;;;22.64
37452;BMP280;23314;51.114;6.900;2022-10-16T12:16:39;101330.84;;;22.64
37452;BMP280;23314;51.114;6.900;2022-10-16T12:19:16;101338.84;;;22.73
37452;BMP280;23314;51.114;6.900;2022-10-16T12:21:43;101330.22;;;22.74
37452;BMP280;23314;51.114;6.900;2022-10-16T12:24:30;101325.44;;;22.90
37452;BMP280;23314;51.114;6.900;2022-10-16T12:26:56;101328.25;;;23.01
37452;BMP280;23314;51.114;6.900;2022-10-16T12:29:26;101329.28;;;23.04
37452;BMP280;23314;51.114;6.900;2022-10-16T12:31:53;101324.31;;;23.02
37452;BMP280;23314;51.114;6.900;2022-10-16T12:36:54;101311.06;;;23.16
37452;BMP280;23314;51.114;6.900;2022-10-16T12:39:24;101309.69;;;23.26
37452;BMP280;23314;51.114;6.900;2022-10-16T12:42:03;101309.97;;;23.34
37452;BMP280;23314;51.114;6.900;2022-10-16T12:44:36;101305.56;;;23.42
37452;BMP280;23314;51.114;6.900;2022-10-16T12:47:02;101313.09;;;23.53
37452;BMP280;23314;51.114;6.900;2022-10-16T12:49:37;101313.34;;;23.60
37452;BMP280;23314;51.114;6.900;2022-10-16T12:54:55;101324.34;;;23.72
37452;BMP280;23314;51.114;6.900;2022-10-16T13:00:18;101325.44;;;23.91
37452;BMP280;23314;51.114;6.900;2022-10-16T13:05:32;101319.63;;;24.21
37452;BMP280;23314;51.114;6.900;2022-10-16T13:22:35;101322.75;;;24.74
37452;BMP280;23314;51.114;6.900;2022-10-16T13:27:55;101327.91;;;24.61
37452;BMP280;23314;51.114;6.900;2022-10-16T13:30:29;101333.88;;;24.54
37452;BMP280;23314;51.114;6.900;2022-10-16T13:33:01;101331.59;;;24.46
37452;BMP280;23314;51.114;6.900;2022-10-16T13:35:32;101315.72;;;24.39
37452;BMP280;23314;51.114;6.900;2022-10-16T13:38:05;101310.97;;;24.28
37452;BMP280;23314;51.114;6.900;2022-10-16T13:40:31;101324.78;;;24.13
37452;BMP280;23314;51.114;6.900;2022-10-16T13:42:59;101329.72;;;24.04
37452;BMP280;23314;51.114;6.900;2022-10-16T13:45:25;101318.34;;;24.05
37452;BMP280;23314;51.114;6.900;2022-10-16T13:48:02;101320.81;;;24.09
37452;BMP280;23314;51.114;6.900;2022-10-16T13:50:27;101321.06;;;24.11
37452;BMP280;23314;51.114;6.900;2022-10-16T13:53:03;101317.63;;;24.10
37452;BMP280;23314;51.114;6.900;2022-10-16T13:55:29;101316.84;;;24.04
37452;BMP280;23314;51.114;6.900;2022-10-16T13:58:04;101317.03;;;23.95
37452;BMP280;23314;51.114;6.900;2022-10-16T14:00:30;101323.41;;;23.80
37452;BMP280;23314;51.114;6.900;2022-10-16T14:03:12;101313.63;;;23.62
37452;BMP280;23314;51.114;6.900;2022-10-16T14:05:48;101321.00;;;23.51
37452;BMP280;23314;51.114;6.900;2022-10-16T14:08:14;101326.81;;;23.38
37452;BMP280;23314;51.114;6.900;2022-10-16T14:10:40;101328.75;;;23.32
37452;BMP280;23314;51.114;6.900;2022-10-16T14:13:07;101328.94;;;23.22
37452;BMP280;23314;51.114;6.900;2022-10-16T14:15:34;101322.03;;;23.21
37452;BMP280;23314;51.114;6.900;2022-10-16T14:18:00;101334.44;;;23.28
37452;BMP280;23314;51.114;6.900;2022-10-16T14:20:28;101329.09;;;23.39
37452;BMP280;23314;51.114;6.900;2022-10-16T14:23:03;101332.56;;;23.45
37452;BMP280;23314;51.114;6.900;2022-10-16T14:25:31;101331.13;;;23.50
37452;BMP280;23314;51.114;6.900;2022-10-16T14:28:23;101329.44;;;23.58
37452;BMP280;23314;51.114;6.900;2022-10-16T14:30:54;101321.06;;;23.62
37452;BMP280;23314;51.114;6.900;2022-10-16T14:33:31;101314.63;;;23.59
37452;BMP280;23314;51.114;6.900;2022-10-16T14:38:35;101314.88;;;23.30
37452;BMP280;23314;51.114;6.900;2022-10-16T14:41:03;101313.53;;;23.14
37452;BMP280;23314;51.114;6.900;2022-10-16T14:43:34;101304.53;;;23.02
37452;BMP280;23314;51.114;6.900;2022-10-16T14:46:02;101307.72;;;23.00
37452;BMP280;23314;51.114;6.900;2022-10-16T14:48:29;101315.63;;;22.98
37452;BMP280;23314;51.114;6.900;2022-10-16T14:50:55;101318.13;;;23.02
37452;BMP280;23314;51.114;6.900;2022-10-16T14:53:21;101324.31;;;23.02
37452;BMP280;23314;51.114;6.900;2022-10-16T14:55:46;101323.34;;;23.05
37452;BMP280;23314;51.114;6.900;2022-10-16T14:58:15;101320.63;;;23.05
37452;BMP280;23314;51.114;6.900;2022-10-16T15:00:41;101334.19;;;23.00
37452;BMP280;23314;51.114;6.900;2022-10-16T15:03:07;101331.22;;;22.98
37452;BMP280;23314;51.114;6.900;2022-10-16T15:05:32;101325.97;;;22.94
37452;BMP280;23314;51.114;6.900;2022-10-16T15:07:57;101331.16;;;22.92
37452;BMP280;23314;51.114;6.900;2022-10-16T15:10:24;101328.06;;;22.84
37452;BMP280;23314;51.114;6.900;2022-10-16T15:12:51;101336.97;;;22.79
37452;BMP280;23314;51.114;6.900;2022-10-16T15:17:55;101333.16;;;22.71
37452;BMP280;23314;51.114;6.900;2022-10-16T15:20:28;101328.91;;;22.64
37452;BMP280;23314;51.114;6.900;2022-10-16T15:22:56;101325.63;;;22.60
37452;BMP280;23314;51.114;6.900;2022-10-16T15:25:47;101335.69;;;22.54
37452;BMP280;23314;51.114;6.900;2022-10-16T15:28:14;101329.44;;;22.48
37452;BMP280;23314;51.114;6.900;2022-10-16T15:30:39;101317.75;;;22.42
37452;BMP280;23314;51.114;6.900;2022-10-16T15:33:12;101331.75;;;22.34
37452;BMP280;23314;51.114;6.900;2022-10-16T15:35:38;101332.69;;;22.31
37452;BMP280;23314;51.114;6.900;2022-10-16T15:38:03;101330.19;;;22.28
37452;BMP280;23314;51.114;6.900;2022-10-16T15:40:29;101324.41;;;22.20
37452;BMP280;23314;51.114;6.900;2022-10-16T15:42:57;101319.81;;;22.11
37452;BMP280;23314;51.114;6.900;2022-10-16T15:45:23;101306.13;;;22.00